KMIB/MIB METAR and TAF weather

Enter ICAO airport designator
Station Type Date Time Source
KMIB METAR 2021/09/25 02:56 UTC NOAA

KMIB 250256Z AUTO 28007KT 10SM CLR 04/M14 A2997 RMK AO2 SLP164 T00401138 55001 $


Station Type Date Time Source
KMIB Decoded METAR 2021/09/25 02:56 UTC NOAA

Minot Air Force Base, ND, United States (KMIB) 48-25N 101-21W
Sep 24, 2021 - 10:56 PM EDT / 2021.09.25 0256 UTC
Wind: from the W (280 degrees) at 8 MPH (7 KT):0
Visibility: 10 mile(s):0
Sky conditions: clear
Temperature: 39.2 F (4.0 C)
Dew Point: 7.2 F (-13.8 C)
Relative Humidity: 25%
Pressure (altimeter): 29.97 in. Hg (1014 hPa)
Pressure tendency: 0.00 inches (0.1 hPa) lower than three hours ago
ob: KMIB 250256Z AUTO 28007KT 10SM CLR 04/M14 A2997 RMK AO2 SLP164 T00401138 55001
cycle: 3

Station Type Date Time Source
KMIB TAF 2021/09/24 23:06 UTC NOAA

TAF TAF KMIB 242300Z 2423/2523 33015G25KT 9999 FEW120 QNH3002INS
BECMG 2500/2501 30009KT 9999 FEW120 QNH2989INS
BECMG 2517/2518 26012G18KT 9999 FEW120 QNH2975INS TX17/2521Z TN05/2512Z LAST NO
AMDS AFT 2423 NEXT 2517

Example: see airport list